Time;durP1;ratioP1;P1;durP2;ratioP2;P2;SDS_P1;SDS_P2;PMS_P1;PMS_P2;Temp;Humidity;BMP_temperature;BMP_pressure;BME280_temperature;BME280_humidity;BME280_pressure;Samples;Min_cycle;Max_cycle;Signal;HPM_P1;HPM_P2
2022/07/17 00:01:57;;;;;;;4.10;2.90;;;;;;;20.40;44.92;99583.69;7030011;28;20290;-79
2022/07/17 00:05:19;;;;;;;3.30;3.00;;;;;;;19.90;46.01;99574.59;7029088;28;20704;-79
2022/07/17 00:08:41;;;;;;;4.60;3.20;;;;;;;20.48;45.06;99591.53;7029836;28;20200;-78
2022/07/17 00:12:02;;;;;;;4.30;3.03;;;;;;;20.59;44.66;99587.03;7034871;28;20211;-79
2022/07/17 00:15:25;;;;;;;4.60;3.50;;;;;;;20.25;45.70;99588.09;7036146;28;20318;-78
2022/07/17 00:18:47;;;;;;;3.53;3.20;;;;;;;20.14;45.50;99569.81;7034870;28;20354;-78
2022/07/17 00:22:10;;;;;;;5.07;4.27;;;;;;;20.33;45.25;99576.75;7035754;28;20290;-79
2022/07/17 00:25:32;;;;;;;3.97;3.23;;;;;;;20.50;44.43;99575.66;7035452;28;20233;-79
2022/07/17 00:28:54;;;;;;;3.67;3.20;;;;;;;20.13;45.82;99584.59;7034777;28;20212;-78
2022/07/17 00:32:16;;;;;;;3.23;2.90;;;;;;;20.26;45.37;99573.31;7035221;28;20209;-79
2022/07/17 00:35:38;;;;;;;3.17;2.97;;;;;;;19.91;45.29;99526.97;7035447;28;20255;-79
2022/07/17 00:38:59;;;;;;;3.50;3.20;;;;;;;19.86;46.34;99569.88;7034725;28;20234;-79
2022/07/17 00:42:21;;;;;;;3.90;3.33;;;;;;;19.73;46.48;99564.66;7035173;28;20217;-79
2022/07/17 00:45:43;;;;;;;4.00;3.50;;;;;;;19.87;46.62;99577.00;7034649;28;20229;-78
2022/07/17 00:49:06;;;;;;;3.77;3.43;;;;;;;19.85;46.53;99582.72;7035083;28;20216;-79
2022/07/17 00:52:28;;;;;;;3.40;3.10;;;;;;;20.00;45.68;99566.56;7034497;28;20210;-79
2022/07/17 00:55:51;;;;;;;3.33;3.10;;;;;;;19.07;48.51;99565.25;7034437;28;20325;-78
2022/07/17 00:59:14;;;;;;;3.53;3.20;;;;;;;19.57;47.02;99577.25;7033861;28;20201;-78
2022/07/17 01:02:35;;;;;;;3.33;3.03;;;;;;;19.22;48.30;99572.97;7034826;28;20284;-78
2022/07/17 01:05:58;;;;;;;3.50;3.20;;;;;;;18.90;48.47;99571.69;7027236;28;20229;-78
2022/07/17 01:09:20;;;;;;;4.23;3.30;;;;;;;18.80;48.99;99574.22;7033477;28;20217;-78
2022/07/17 01:12:41;;;;;;;4.53;3.80;;;;;;;18.97;48.98;99577.84;7036185;28;20429;-79
2022/07/17 01:16:03;;;;;;;4.23;3.50;;;;;;;19.13;48.38;99585.31;7041630;28;20244;-79
2022/07/17 01:19:25;;;;;;;4.47;3.60;;;;;;;19.08;48.46;99583.31;7040642;28;20201;-79
2022/07/17 01:22:50;;;;;;;3.70;3.20;;;;;;;19.10;48.45;99594.00;7040421;28;20201;-78
2022/07/17 01:26:12;;;;;;;3.50;3.20;;;;;;;19.04;47.89;99535.66;7040761;28;20256;-79
2022/07/17 01:29:36;;;;;;;3.57;3.27;;;;;;;19.44;47.28;99593.94;7039858;28;20245;-79
2022/07/17 01:32:58;;;;;;;3.50;3.20;;;;;;;19.39;47.29;99593.84;7041040;28;20209;-79
2022/07/17 01:36:22;;;;;;;4.17;3.50;;;;;;;19.17;48.07;99595.50;7041294;28;20283;-79
2022/07/17 01:39:54;;;;;;;4.03;3.73;;;;;;;19.18;48.05;99585.44;7040166;28;20284;-79
2022/07/17 01:43:16;;;;;;;3.67;3.37;;;;;;;18.88;49.21;99603.91;7040851;28;20255;-79
2022/07/17 01:46:37;;;;;;;3.87;3.33;;;;;;;19.15;48.47;99596.81;7040256;28;20287;-79
2022/07/17 01:49:59;;;;;;;3.70;3.40;;;;;;;19.49;47.09;99606.88;7039580;28;20580;-79
2022/07/17 01:53:20;;;;;;;4.30;3.63;;;;;;;18.94;48.01;99605.66;7040781;28;20229;-79
2022/07/17 01:56:43;;;;;;;3.83;3.53;;;;;;;18.51;49.64;99577.91;7038953;28;20270;-79
2022/07/17 02:00:07;;;;;;;3.70;3.40;;;;;;;18.72;49.39;99597.25;7039419;28;20225;-79
2022/07/17 02:03:29;;;;;;;3.90;3.60;;;;;;;18.77;48.94;99600.09;7037351;28;20231;-79
2022/07/17 02:06:50;;;;;;;3.70;3.40;;;;;;;18.57;48.68;99571.50;7024944;28;20233;-79
2022/07/17 02:10:13;;;;;;;4.00;3.60;;;;;;;18.83;48.98;99584.66;7011470;28;20202;-79
2022/07/17 02:13:36;;;;;;;3.77;3.47;;;;;;;18.75;48.45;99574.09;7011785;28;20662;-79
2022/07/17 02:16:58;;;;;;;3.73;3.43;;;;;;;18.26;50.20;99596.34;7011316;28;20201;-81
2022/07/17 02:20:20;;;;;;;4.47;4.00;;;;;;;17.93;51.45;99596.88;7010604;28;20243;-79
2022/07/17 02:23:41;;;;;;;3.97;3.50;;;;;;;17.98;50.64;99555.25;7010954;28;20362;-79
2022/07/17 02:27:03;;;;;;;5.60;3.30;;;;;;;18.15;51.08;99572.59;7009784;28;20205;-79
2022/07/17 02:30:26;;;;;;;4.00;3.70;;;;;;;18.45;49.97;99585.13;7010688;28;20236;-79
2022/07/17 02:33:48;;;;;;;3.60;3.30;;;;;;;18.34;49.18;99571.47;7010158;28;20233;-79
2022/07/17 02:37:10;;;;;;;3.87;3.57;;;;;;;18.50;49.67;99587.97;7010647;28;20233;-79
2022/07/17 02:40:31;;;;;;;3.73;3.40;;;;;;;18.35;49.88;99584.06;7009776;28;20209;-79
2022/07/17 02:43:53;;;;;;;4.47;3.53;;;;;;;18.44;49.51;99580.75;7010512;28;20700;-79
2022/07/17 02:47:21;;;;;;;4.07;3.67;;;;;;;18.53;49.37;99578.50;7009932;28;20251;-79
2022/07/17 02:50:43;;;;;;;3.77;3.40;;;;;;;18.66;48.73;99575.50;7005115;28;20200;-79
2022/07/17 02:54:04;;;;;;;4.10;3.80;;;;;;;18.28;49.57;99554.09;7002764;28;20226;-79
2022/07/17 02:57:26;;;;;;;6.20;3.60;;;;;;;18.36;49.60;99574.78;7002738;28;20235;-79
2022/07/17 03:00:47;;;;;;;4.73;3.67;;;;;;;17.92;50.27;99558.91;7002221;28;20290;-79
2022/07/17 03:04:10;;;;;;;3.90;3.60;;;;;;;17.73;51.51;99569.06;7001495;28;20241;-79
2022/07/17 03:07:32;;;;;;;4.23;3.87;;;;;;;17.79;51.47;99559.09;7011510;28;20189;-79
2022/07/17 03:10:53;;;;;;;4.73;3.43;;;;;;;18.06;50.68;99571.28;7031500;28;20215;-79
2022/07/17 03:14:15;;;;;;;4.00;3.70;;;;;;;18.21;49.44;99538.91;7032485;28;20765;-79
2022/07/17 03:17:38;;;;;;;5.00;4.50;;;;;;;18.06;49.75;99553.03;7032440;28;20270;-79
2022/07/17 03:21:01;;;;;;;3.80;3.50;;;;;;;17.94;50.56;99559.50;7032808;28;20265;-79
2022/07/17 03:24:23;;;;;;;5.00;4.20;;;;;;;18.12;50.28;99565.72;7033510;28;20221;-79
2022/07/17 03:27:44;;;;;;;5.10;4.20;;;;;;;18.04;50.34;99563.31;7031999;28;20265;-79
2022/07/17 03:31:06;;;;;;;3.70;3.40;;;;;;;17.73;51.30;99579.13;7032648;28;20272;-79
2022/07/17 03:34:27;;;;;;;4.63;3.80;;;;;;;18.07;50.44;99559.28;7032078;28;20275;-79
2022/07/17 03:37:50;;;;;;;4.20;3.90;;;;;;;18.13;49.87;99567.38;7031552;28;20209;-79
2022/07/17 03:41:12;;;;;;;7.03;6.43;;;;;;;17.77;51.13;99555.78;7032554;28;20228;-79
2022/07/17 03:44:33;;;;;;;5.43;4.83;;;;;;;17.89;49.91;99540.28;7032271;28;20276;-79
2022/07/17 03:47:55;;;;;;;8.67;7.23;;;;;;;18.09;49.91;99562.59;7031763;28;20310;-79
2022/07/17 03:51:16;;;;;;;4.07;3.77;;;;;;;17.95;49.71;99575.66;7032532;28;20241;-79
2022/07/17 03:54:39;;;;;;;4.30;3.90;;;;;;;17.42;51.35;99577.47;7032144;28;20234;-79
2022/07/17 03:58:01;;;;;;;4.00;3.70;;;;;;;17.97;50.14;99578.97;7031482;28;20209;-79
2022/07/17 04:01:23;;;;;;;4.33;3.93;;;;;;;17.81;50.50;99584.28;7031452;28;20215;-78
2022/07/17 04:04:44;;;;;;;4.13;3.73;;;;;;;17.80;50.51;99588.88;7030484;28;20301;-79
2022/07/17 04:08:09;;;;;;;4.63;4.17;;;;;;;17.69;51.13;99565.13;7031142;28;20225;-79
2022/07/17 04:11:32;;;;;;;4.00;3.53;;;;;;;17.69;50.95;99578.75;7031202;28;20250;-79
2022/07/17 04:14:53;;;;;;;5.43;3.90;;;;;;;17.79;50.56;99587.22;7031439;28;20843;-79
2022/07/17 04:18:15;;;;;;;4.07;3.77;;;;;;;17.82;50.34;99585.94;7031689;28;20671;-79
2022/07/17 04:21:36;;;;;;;4.77;3.83;;;;;;;17.48;51.31;99603.81;7031291;28;20205;-78
2022/07/17 04:24:58;;;;;;;4.43;4.03;;;;;;;17.41;52.11;99594.91;7031446;28;20221;-79
2022/07/17 04:28:21;;;;;;;4.77;4.00;;;;;;;17.39;52.23;99605.19;7031045;28;20216;-78
2022/07/17 04:31:43;;;;;;;4.97;3.90;;;;;;;17.68;51.34;99593.47;7031131;28;20209;-78
2022/07/17 04:35:05;;;;;;;4.20;3.80;;;;;;;17.36;52.20;99602.06;7030699;28;20316;-79
2022/07/17 04:38:27;;;;;;;3.93;3.63;;;;;;;17.27;52.68;99587.91;7030919;28;20253;-78
2022/07/17 04:41:48;;;;;;;4.47;3.60;;;;;;;17.71;51.13;99597.63;7031046;28;20241;-79
2022/07/17 04:45:13;;;;;;;4.10;3.80;;;;;;;17.60;51.81;99596.53;7030296;28;20267;-79
2022/07/17 04:48:34;;;;;;;6.30;4.10;;;;;;;17.86;51.80;99603.50;7029839;28;20212;-79
2022/07/17 04:51:56;;;;;;;4.73;4.23;;;;;;;17.89;51.02;99592.97;7031055;28;20205;-78
2022/07/17 04:55:18;;;;;;;4.47;4.07;;;;;;;17.87;51.20;99591.53;7030483;28;20750;-79
2022/07/17 04:58:39;;;;;;;3.97;3.67;;;;;;;18.25;50.88;99594.69;7035253;28;20205;-78
2022/07/17 05:02:02;;;;;;;4.30;3.90;;;;;;;18.44;50.84;99594.38;7036678;28;20282;-79
2022/07/17 05:05:24;;;;;;;4.03;3.73;;;;;;;18.77;49.57;99602.00;7034960;28;20240;-78
2022/07/17 05:08:45;;;;;;;4.70;4.30;;;;;;;18.84;49.76;99609.00;7029833;28;20890;-78
2022/07/17 05:12:07;;;;;;;4.20;3.90;;;;;;;19.61;47.76;99607.66;7035476;28;20224;-79
2022/07/17 05:15:28;;;;;;;3.97;3.67;;;;;;;20.41;45.80;99601.78;7034871;28;20229;-78
2022/07/17 05:18:51;;;;;;;3.90;3.60;;;;;;;20.67;44.96;99580.00;7035158;28;20235;-78
2022/07/17 05:22:13;;;;;;;5.70;4.10;;;;;;;20.19;45.98;99572.66;7035241;28;20208;-79
2022/07/17 05:25:34;;;;;;;4.17;3.83;;;;;;;21.08;44.81;99608.06;7034785;28;20299;-79
2022/07/17 05:28:56;;;;;;;4.17;3.80;;;;;;;21.26;43.93;99594.88;7034491;28;20686;-79
2022/07/17 05:32:17;;;;;;;3.80;3.50;;;;;;;21.46;44.74;99579.50;7034368;28;20298;-79
2022/07/17 05:35:40;;;;;;;3.80;3.50;;;;;;;21.47;42.94;99503.47;7034341;28;20320;-78
2022/07/17 05:39:02;;;;;;;5.87;4.10;;;;;;;22.14;42.40;99600.84;7033730;28;20213;-79
2022/07/17 05:42:23;;;;;;;5.13;3.90;;;;;;;22.00;42.27;99586.72;7034512;28;20232;-79
2022/07/17 05:45:45;;;;;;;4.90;3.47;;;;;;;22.21;42.07;99587.72;7034411;28;20718;-79
2022/07/17 05:49:08;;;;;;;4.93;3.43;;;;;;;22.54;41.75;99599.31;7033681;28;20690;-78
2022/07/17 05:52:31;;;;;;;3.87;3.53;;;;;;;22.44;41.46;99587.41;7034614;28;20677;-79
2022/07/17 05:55:52;;;;;;;3.73;3.43;;;;;;;21.70;42.94;99600.13;7033804;28;20236;-79
2022/07/17 05:59:14;;;;;;;6.03;4.53;;;;;;;21.52;44.06;99602.34;7030623;28;20209;-78
2022/07/17 06:02:35;;;;;;;4.33;3.90;;;;;;;22.06;42.59;99604.91;7034262;28;20292;-78
2022/07/17 06:05:57;;;;;;;4.77;3.60;;;;;;;21.77;42.88;99600.75;7033013;28;20277;-78
2022/07/17 06:09:20;;;;;;;3.30;3.10;;;;;;;22.70;41.62;99592.84;7033423;28;20289;-79
2022/07/17 06:12:41;;;;;;;4.07;3.67;;;;;;;23.52;39.79;99593.03;7033749;28;20251;-78
2022/07/17 06:16:03;;;;;;;3.63;3.33;;;;;;;24.58;38.39;99597.69;7033362;28;20234;-78
2022/07/17 06:19:25;;;;;;;5.93;4.53;;;;;;;24.62;37.67;99593.28;7032020;28;20225;-79
2022/07/17 06:22:46;;;;;;;4.03;3.67;;;;;;;24.35;38.61;99595.47;7032350;28;20249;-79
2022/07/17 06:26:09;;;;;;;4.13;3.73;;;;;;;24.45;37.45;99588.03;7034875;28;20261;-79
2022/07/17 06:29:31;;;;;;;3.93;3.37;;;;;;;24.36;38.01;99594.38;7034414;28;20200;-79
2022/07/17 06:32:52;;;;;;;5.17;3.43;;;;;;;24.50;37.57;99601.84;7036706;28;20365;-79
2022/07/17 06:36:14;;;;;;;5.37;3.20;;;;;;;25.67;36.08;99596.59;7035681;28;20236;-79
2022/07/17 06:39:35;;;;;;;2.90;2.70;;;;;;;25.74;34.41;99547.41;7037428;28;20236;-78
2022/07/17 06:42:58;;;;;;;3.43;3.13;;;;;;;26.45;34.02;99601.13;7035210;28;20208;-79
2022/07/17 06:46:20;;;;;;;3.37;3.07;;;;;;;26.47;33.12;99600.81;7039339;28;20242;-78
2022/07/17 06:49:43;;;;;;;2.90;2.67;;;;;;;26.65;32.40;99600.19;7039983;28;20197;-79
2022/07/17 06:53:04;;;;;;;3.37;2.67;;;;;;;26.47;32.46;99557.41;7036922;28;20214;-78
2022/07/17 06:56:26;;;;;;;2.90;2.70;;;;;;;27.49;31.18;99604.00;7041067;28;20230;-79
2022/07/17 06:59:49;;;;;;;2.23;2.10;;;;;;;27.49;28.63;99600.41;7042715;28;20778;-79
2022/07/17 07:03:11;;;;;;;2.23;2.07;;;;;;;27.95;26.89;99605.09;7053602;28;20201;-79
2022/07/17 07:06:33;;;;;;;2.33;2.10;;;;;;;27.23;27.83;99543.66;7043722;28;20205;-78
2022/07/17 07:09:54;;;;;;;2.03;1.90;;;;;;;27.09;27.61;99557.38;7051407;28;20206;-79
2022/07/17 07:13:16;;;;;;;5.50;1.93;;;;;;;28.11;26.73;99614.00;7041167;28;20207;-79
2022/07/17 07:16:39;;;;;;;2.40;2.23;;;;;;;27.29;27.47;99592.31;7032901;28;20661;-79
2022/07/17 07:20:01;;;;;;;3.10;2.43;;;;;;;27.12;30.26;99609.38;7031530;28;20230;-79
2022/07/17 07:23:22;;;;;;;2.43;2.23;;;;;;;28.26;28.68;99603.50;7036369;28;20609;-79
2022/07/17 07:26:44;;;;;;;3.30;2.30;;;;;;;28.28;28.50;99594.88;7035274;28;20288;-79
2022/07/17 07:30:09;;;;;;;4.37;2.50;;;;;;;27.76;29.23;99600.59;7037657;28;20680;-79
2022/07/17 07:33:32;;;;;;;2.97;2.40;;;;;;;27.32;29.21;99584.25;7033024;28;20227;-79
2022/07/17 07:36:53;;;;;;;2.17;1.97;;;;;;;28.38;29.27;99609.44;7036231;28;20251;-79
2022/07/17 07:40:15;;;;;;;2.20;2.00;;;;;;;28.23;28.56;99592.19;7036097;28;20204;-80
2022/07/17 07:43:37;;;;;;;2.70;2.40;;;;;;;27.76;28.15;99582.03;7036414;28;20224;-79
2022/07/17 07:46:58;;;;;;;3.30;2.23;;;;;;;28.50;27.30;99603.44;7033796;28;20297;-79
2022/07/17 07:50:23;;;;;;;2.40;2.17;;;;;;;28.32;28.77;99593.16;7032832;28;20207;-80
2022/07/17 07:53:45;;;;;;;2.37;2.17;;;;;;;28.77;27.64;99598.81;7033043;28;20222;-79
2022/07/17 07:57:07;;;;;;;2.30;1.90;;;;;;;29.08;27.55;99611.03;7029864;28;20282;-80
2022/07/17 08:00:28;;;;;;;2.40;2.20;;;;;;;29.35;27.33;99599.13;7005711;28;20236;-79
2022/07/17 08:03:52;;;;;;;6.97;2.20;;;;;;;29.27;26.82;99578.47;7004120;28;20232;-80
2022/07/17 08:07:15;;;;;;;2.30;2.10;;;;;;;30.23;25.85;99616.19;7004489;28;20537;-80
2022/07/17 08:10:36;;;;;;;2.40;1.90;;;;;;;30.07;25.38;99603.75;7004825;28;20294;-80
2022/07/17 08:13:59;;;;;;;2.10;1.90;;;;;;;30.01;25.33;99622.50;7003400;28;20222;-79
2022/07/17 08:17:20;;;;;;;2.20;2.00;;;;;;;29.42;26.24;99628.16;7003575;28;20232;-80
2022/07/17 08:20:43;;;;;;;3.00;2.17;;;;;;;30.66;25.23;99609.06;7002387;28;20234;-80
2022/07/17 08:24:06;;;;;;;2.20;2.10;;;;;;;30.65;24.58;99622.16;7002873;28;20228;-79
2022/07/17 08:27:27;;;;;;;2.23;2.03;;;;;;;31.64;23.57;99598.28;7002908;28;20286;-80
2022/07/17 08:30:49;;;;;;;2.30;2.10;;;;;;;32.10;23.40;99606.13;7003147;28;20202;-79
2022/07/17 08:34:11;;;;;;;2.40;2.20;;;;;;;30.72;24.72;99594.69;7008369;28;20237;-80
2022/07/17 08:37:43;;;;;;;2.40;2.20;;;;;;;30.99;24.14;99605.66;7015271;28;20231;-81
2022/07/17 08:41:06;;;;;;;2.60;2.40;;;;;;;29.73;24.82;99583.94;7013873;28;20634;-79
2022/07/17 08:44:28;;;;;;;2.00;1.90;;;;;;;30.34;25.29;99598.13;7008904;28;20776;-80
2022/07/17 08:47:51;;;;;;;3.20;1.90;;;;;;;31.19;24.63;99593.19;7007145;28;20279;-78
2022/07/17 08:51:13;;;;;;;3.77;2.23;;;;;;;32.33;22.88;99594.53;7007163;28;20214;-78
2022/07/17 08:54:35;;;;;;;6.13;2.20;;;;;;;32.10;22.90;99592.16;7007695;28;20273;-78
2022/07/17 08:57:58;;;;;;;2.70;2.03;;;;;;;32.35;22.38;99599.75;7007856;28;20397;-78
2022/07/17 09:01:20;;;;;;;2.97;2.00;;;;;;;32.24;22.90;99592.81;7023705;28;20182;-80
2022/07/17 09:04:42;;;;;;;2.27;2.07;;;;;;;31.80;23.14;99599.53;7018023;28;20231;-78
2022/07/17 09:08:04;;;;;;;3.23;2.20;;;;;;;31.43;23.88;99605.56;7007094;28;20238;-78
2022/07/17 09:11:28;;;;;;;2.87;2.17;;;;;;;31.82;23.49;99611.16;7007453;28;20231;-78
2022/07/17 09:14:51;;;;;;;2.00;1.80;;;;;;;32.22;22.73;99606.28;7007819;28;20235;-79
2022/07/17 09:18:13;;;;;;;3.03;2.20;;;;;;;31.46;22.99;99602.16;7006569;28;20235;-80
2022/07/17 09:21:36;;;;;;;3.97;2.00;;;;;;;32.53;21.81;99591.06;7007189;28;20226;-79
2022/07/17 09:24:59;;;;;;;3.43;2.10;;;;;;;32.00;22.16;99595.25;7007406;28;20235;-79
2022/07/17 09:28:21;;;;;;;1.90;1.80;;;;;;;31.39;22.45;99587.03;7007420;28;20216;-79
2022/07/17 09:31:44;;;;;;;5.60;2.27;;;;;;;31.01;23.20;99592.22;7007828;28;20214;-78
2022/07/17 09:35:07;;;;;;;2.47;1.90;;;;;;;32.63;22.03;99592.69;7007872;28;20227;-79
2022/07/17 09:38:31;;;;;;;3.13;1.90;;;;;;;31.62;22.27;99580.22;7007544;28;20774;-79
2022/07/17 09:41:52;;;;;;;1.93;1.83;;;;;;;30.76;23.42;99589.28;7007306;28;20215;-79
2022/07/17 09:45:14;;;;;;;2.43;2.20;;;;;;;30.81;23.68;99580.81;7007696;28;20369;-79
2022/07/17 09:48:42;;;;;;;2.17;1.97;;;;;;;30.31;24.14;99587.63;7007814;28;20236;-79
2022/07/17 09:52:03;;;;;;;2.17;1.90;;;;;;;31.82;22.34;99579.66;7007021;28;20191;-79
2022/07/17 09:55:29;;;;;;;2.97;2.03;;;;;;;32.83;21.39;99581.69;7007382;28;20260;-79
2022/07/17 09:58:53;;;;;;;2.03;1.83;;;;;;;33.22;20.81;99577.78;7008837;28;20229;-79
2022/07/17 10:02:14;;;;;;;1.80;1.70;;;;;;;33.84;20.23;99554.47;7006956;28;20298;-79
2022/07/17 10:05:37;;;;;;;2.00;1.90;;;;;;;32.67;21.23;99562.97;7006779;28;20228;-79
2022/07/17 10:08:59;;;;;;;3.57;1.90;;;;;;;32.08;21.20;99574.94;7006506;28;20324;-80
2022/07/17 10:12:21;;;;;;;2.17;1.97;;;;;;;33.37;19.83;99560.50;7008682;28;20205;-79
2022/07/17 10:15:43;;;;;;;2.10;2.00;;;;;;;33.35;20.20;99569.22;7009265;28;20230;-79
2022/07/17 10:19:16;;;;;;;3.43;1.80;;;;;;;34.00;19.73;99563.91;7011621;28;20228;-80
2022/07/17 10:22:43;;;;;;;2.70;1.90;;;;;;;34.85;18.73;99560.38;7012677;28;20189;-79
2022/07/17 10:26:05;;;;;;;2.80;1.90;;;;;;;34.68;18.78;99554.13;7008959;28;20263;-79
2022/07/17 10:29:31;;;;;;;2.77;2.17;;;;;;;32.94;19.24;99566.19;7006530;28;20214;-79
2022/07/17 10:32:58;;;;;;;2.00;1.80;;;;;;;34.44;18.88;99560.44;7006074;28;20210;-79
2022/07/17 10:36:19;;;;;;;2.80;2.10;;;;;;;33.77;19.12;99539.38;7006380;28;20245;-79
2022/07/17 10:39:53;;;;;;;2.20;2.00;;;;;;;34.46;19.04;99544.13;7012530;28;20213;-79
2022/07/17 10:43:14;;;;;;;2.50;1.80;;;;;;;35.19;18.32;99531.16;7006970;28;20193;-79
2022/07/17 10:46:36;;;;;;;3.20;1.83;;;;;;;35.04;18.84;99552.28;7007009;28;20222;-79
2022/07/17 10:49:58;;;;;;;2.00;1.80;;;;;;;34.54;19.09;99540.41;7005655;28;20221;-79
2022/07/17 10:53:22;;;;;;;1.93;1.83;;;;;;;34.79;18.14;99513.34;7005932;28;20553;-80
2022/07/17 10:56:45;;;;;;;3.07;1.73;;;;;;;35.54;18.13;99527.56;7006315;28;20290;-79
2022/07/17 11:00:08;;;;;;;3.80;2.10;;;;;;;35.67;18.24;99534.78;7006025;28;20296;-79
2022/07/17 11:03:30;;;;;;;2.00;1.90;;;;;;;35.14;18.14;99540.59;7022451;28;20225;-79
2022/07/17 11:06:51;;;;;;;2.93;1.73;;;;;;;35.43;16.84;99534.81;7009843;28;20259;-79
2022/07/17 11:10:14;;;;;;;2.10;2.00;;;;;;;34.27;17.64;99552.22;7005321;28;20210;-80
2022/07/17 11:13:37;;;;;;;1.90;1.80;;;;;;;33.52;18.20;99541.16;7005867;28;20229;-78
2022/07/17 11:17:00;;;;;;;4.37;2.10;;;;;;;34.47;18.45;99528.13;7005311;28;20244;-79
2022/07/17 11:20:21;;;;;;;3.63;1.93;;;;;;;35.29;17.59;99520.31;7004548;28;20304;-80
2022/07/17 11:23:51;;;;;;;4.33;1.83;;;;;;;35.03;17.14;99499.34;7005538;28;20222;-79
2022/07/17 11:27:19;;;;;;;2.10;1.90;;;;;;;35.93;16.28;99514.78;7006224;28;20202;-79
2022/07/17 11:30:42;;;;;;;2.20;1.87;;;;;;;35.03;17.24;99521.78;7005303;28;20269;-79
2022/07/17 11:34:08;;;;;;;1.80;1.70;;;;;;;33.27;17.97;99490.97;7006003;28;20310;-79
2022/07/17 11:37:31;;;;;;;2.70;2.10;;;;;;;34.97;17.37;99509.97;7004920;28;20748;-79
2022/07/17 11:40:52;;;;;;;3.93;2.00;;;;;;;34.13;17.84;99520.84;7004791;28;20229;-79
2022/07/17 11:44:18;;;;;;;2.30;2.10;;;;;;;34.25;18.17;99520.09;7005797;28;20283;-79
2022/07/17 11:47:43;;;;;;;2.17;1.83;;;;;;;35.31;17.24;99523.56;7004976;28;20712;-79
2022/07/17 11:51:04;;;;;;;2.77;2.00;;;;;;;34.50;17.43;99521.84;7005300;28;20212;-79
2022/07/17 11:54:27;;;;;;;1.73;1.50;;;;;;;33.47;18.69;99490.19;7004960;28;20226;-79
2022/07/17 11:57:50;;;;;;;1.80;1.70;;;;;;;34.86;17.78;99507.97;7004209;28;20271;-79
2022/07/17 12:01:12;;;;;;;3.33;1.60;;;;;;;34.23;17.60;99514.81;7024303;28;20205;-79
2022/07/17 12:04:51;;;;;;;1.93;1.80;;;;;;;34.00;17.91;99521.09;7032239;28;20296;-79
2022/07/17 12:08:19;;;;;;;1.80;1.70;;;;;;;34.39;17.00;99499.06;7037457;28;20192;-79
2022/07/17 12:11:49;;;;;;;1.70;1.60;;;;;;;34.66;17.02;99503.22;7038830;28;20189;-77
2022/07/17 12:15:10;;;;;;;4.77;1.90;;;;;;;34.86;16.72;99500.38;7038473;28;20220;-79
2022/07/17 12:18:32;;;;;;;1.90;1.80;;;;;;;33.83;17.25;99508.06;7037562;28;20225;-78
2022/07/17 12:21:56;;;;;;;2.40;1.90;;;;;;;32.59;18.27;99499.53;7039030;28;20216;-79
2022/07/17 12:25:25;;;;;;;1.93;1.83;;;;;;;33.97;16.91;99480.63;7037837;28;20229;-79
2022/07/17 12:28:47;;;;;;;1.90;1.80;;;;;;;33.91;17.47;99507.16;7039404;28;20201;-79
2022/07/17 12:32:10;;;;;;;1.93;1.83;;;;;;;34.75;16.76;99496.41;7052949;28;20296;-79
2022/07/17 12:35:32;;;;;;;1.90;1.70;;;;;;;34.57;16.55;99508.94;7046657;28;20217;-78
2022/07/17 12:38:55;;;;;;;1.80;1.70;;;;;;;34.90;16.48;99492.91;7043958;28;20224;-79
2022/07/17 12:42:17;;;;;;;1.80;1.70;;;;;;;33.79;17.17;99503.50;7037806;28;20354;-79
2022/07/17 12:45:38;;;;;;;1.80;1.67;;;;;;;34.38;16.51;99493.78;7036687;28;20225;-79
2022/07/17 12:49:00;;;;;;;1.87;1.77;;;;;;;35.55;16.16;99478.69;7036059;28;20186;-79
2022/07/17 12:52:21;;;;;;;1.53;1.43;;;;;;;34.88;16.19;99466.38;7036925;28;20205;-79
2022/07/17 12:55:44;;;;;;;3.47;1.90;;;;;;;35.91;16.10;99480.63;7036346;28;20259;-79
2022/07/17 12:59:07;;;;;;;3.43;1.83;;;;;;;37.06;15.48;99481.13;7036526;28;20274;-79
2022/07/17 13:02:29;;;;;;;1.80;1.70;;;;;;;35.01;16.79;99470.84;7050461;28;20265;-80
2022/07/17 13:05:50;;;;;;;2.00;1.90;;;;;;;34.49;16.99;99481.78;7046173;28;20229;-79
2022/07/17 13:09:13;;;;;;;1.90;1.80;;;;;;;34.29;16.91;99488.28;7036694;28;20662;-79
2022/07/17 13:12:36;;;;;;;2.37;1.70;;;;;;;34.99;16.11;99462.78;7037186;28;20212;-79
2022/07/17 13:15:58;;;;;;;3.27;1.70;;;;;;;35.37;16.13;99456.88;7037120;28;20261;-79
2022/07/17 13:19:21;;;;;;;2.40;1.90;;;;;;;35.21;16.17;99487.56;7034696;28;20761;-79
2022/07/17 13:22:42;;;;;;;5.47;2.00;;;;;;;35.23;16.53;99471.25;7036217;28;20215;-79
2022/07/17 13:26:04;;;;;;;1.90;1.80;;;;;;;34.96;16.85;99477.50;7035750;28;20224;-79
2022/07/17 13:29:27;;;;;;;1.90;1.63;;;;;;;35.73;15.77;99479.28;7035834;28;20213;-79
2022/07/17 13:32:49;;;;;;;2.00;1.80;;;;;;;34.67;16.09;99477.63;7035848;28;20197;-79
2022/07/17 13:36:11;;;;;;;1.87;1.77;;;;;;;36.34;14.87;99478.75;7034889;28;20225;-79
2022/07/17 13:39:32;;;;;;;2.00;1.80;;;;;;;36.61;14.65;99472.25;7034320;28;20224;-79
2022/07/17 13:42:54;;;;;;;2.20;1.90;;;;;;;36.05;15.04;99467.00;7035348;28;20258;-79
2022/07/17 13:46:17;;;;;;;3.20;2.00;;;;;;;35.93;15.78;99470.69;7035062;28;20256;-80
2022/07/17 13:49:38;;;;;;;3.43;1.70;;;;;;;35.96;15.71;99474.78;7034664;28;20213;-79
2022/07/17 13:53:01;;;;;;;1.90;1.80;;;;;;;35.32;16.10;99460.69;7036106;28;20253;-79
2022/07/17 13:56:22;;;;;;;1.67;1.57;;;;;;;36.29;15.37;99470.56;7035547;28;20240;-79
2022/07/17 13:59:44;;;;;;;2.03;1.80;;;;;;;36.69;15.26;99464.88;7029188;28;20314;-79
2022/07/17 14:03:08;;;;;;;1.93;1.83;;;;;;;35.79;15.47;99444.97;7006505;28;20210;-80
2022/07/17 14:06:30;;;;;;;1.67;1.57;;;;;;;35.22;15.36;99457.53;7006943;28;20245;-80
2022/07/17 14:09:51;;;;;;;2.70;1.70;;;;;;;35.41;15.71;99466.19;7007551;28;20279;-79
2022/07/17 14:13:13;;;;;;;1.60;1.50;;;;;;;35.67;15.08;99444.97;7007109;28;20299;-79
2022/07/17 14:16:34;;;;;;;1.50;1.40;;;;;;;35.99;14.70;99438.38;7007890;28;20213;-79
2022/07/17 14:19:57;;;;;;;2.63;1.67;;;;;;;35.55;15.29;99441.41;7011142;28;20254;-80
2022/07/17 14:23:19;;;;;;;2.30;1.90;;;;;;;34.94;15.44;99437.78;7010994;28;20286;-79
2022/07/17 14:26:42;;;;;;;4.27;1.80;;;;;;;36.08;14.74;99421.38;7006174;28;20232;-80
2022/07/17 14:30:04;;;;;;;5.30;1.90;;;;;;;35.92;14.98;99432.56;7004534;28;20734;-79
2022/07/17 14:33:25;;;;;;;1.67;1.57;;;;;;;35.16;15.81;99420.50;7006612;28;20256;-80
2022/07/17 14:36:49;;;;;;;2.47;1.87;;;;;;;34.06;16.76;99414.19;7006971;28;20226;-79
2022/07/17 14:40:11;;;;;;;1.83;1.73;;;;;;;33.83;16.32;99403.72;7014225;28;20205;-79
2022/07/17 14:43:33;;;;;;;2.17;1.97;;;;;;;33.14;17.60;99436.88;7006004;28;20257;-79
2022/07/17 14:46:54;;;;;;;1.90;1.80;;;;;;;34.48;16.37;99353.31;7005052;28;20305;-79
2022/07/17 14:50:16;;;;;;;1.60;1.50;;;;;;;35.75;15.41;99430.03;7005722;28;20292;-79
2022/07/17 14:53:39;;;;;;;1.93;1.83;;;;;;;35.25;14.50;99424.00;7005728;28;20254;-80
2022/07/17 14:57:00;;;;;;;3.07;1.60;;;;;;;35.49;15.18;99414.75;7005112;28;20212;-79
2022/07/17 15:00:22;;;;;;;1.80;1.70;;;;;;;35.62;14.86;99407.94;7005291;28;20202;-79
2022/07/17 15:03:44;;;;;;;4.37;1.80;;;;;;;35.27;14.35;99415.25;7023721;28;20216;-80
2022/07/17 15:07:06;;;;;;;1.90;1.80;;;;;;;35.76;14.10;99423.25;7012661;28;20255;-79
2022/07/17 15:10:29;;;;;;;2.73;1.73;;;;;;;35.77;14.96;99419.25;7007946;28;20267;-79
2022/07/17 15:13:51;;;;;;;3.30;1.70;;;;;;;34.87;15.18;99412.34;7008961;28;20283;-79
2022/07/17 15:17:12;;;;;;;1.80;1.70;;;;;;;34.93;14.89;99418.50;7008503;28;20670;-78
2022/07/17 15:20:35;;;;;;;1.90;1.70;;;;;;;35.18;14.75;99414.53;7008679;28;20225;-79
2022/07/17 15:23:57;;;;;;;1.97;1.70;;;;;;;35.27;15.08;99407.69;7009257;28;20227;-79
2022/07/17 15:27:20;;;;;;;2.50;1.80;;;;;;;34.81;15.36;99405.31;7010480;28;20213;-80
2022/07/17 15:30:42;;;;;;;2.73;1.67;;;;;;;35.32;14.78;99412.22;7009214;28;20296;-79
2022/07/17 15:34:03;;;;;;;1.70;1.60;;;;;;;35.23;14.57;99403.09;7009301;28;20221;-79
2022/07/17 15:37:25;;;;;;;2.23;1.70;;;;;;;34.31;15.26;99401.94;7005415;28;20222;-80
2022/07/17 15:40:46;;;;;;;2.27;1.90;;;;;;;34.47;15.33;99408.50;7005624;28;20882;-79
2022/07/17 15:44:09;;;;;;;2.17;1.67;;;;;;;34.82;15.38;99390.13;7005501;28;20225;-80
2022/07/17 15:47:31;;;;;;;1.87;1.70;;;;;;;34.77;15.47;99381.13;7005186;28;20256;-80
2022/07/17 15:50:52;;;;;;;2.00;1.80;;;;;;;35.27;15.13;99404.03;7004739;28;20205;-79
2022/07/17 15:54:15;;;;;;;1.93;1.83;;;;;;;34.71;15.44;99402.94;7005757;28;20225;-79